Weather observations for the past three days for
Aitkin Municipal Airport - Steve Kurtz Field
Metric (Imperial)
Date Time (cdt) Wind (kph) Vis. (km) Weather Sky Cond. Temperature (ºC) Relative Humidity Wind Chill (°C) Heat Index (°C) Pressure Precipitation (cm)
Air Dwpt 6 hour altimeter (cm) sea level (mb) 1 hr 3 hr 6 hr
Max. Min.
07 14:35 W 13 G 30 16.09 Partly Cloudy SCT065 11 -7 28% 75.69 0.0
07 14:15 W 17 16.09 Partly Cloudy SCT065 11 -7 28% 75.69 0.0
07 13:55 W 15 G 30 16.09 Partly Cloudy SCT065 11 -7 28% 75.72 0.0
07 13:36 W 13 G 26 16.09 Partly Cloudy SCT065 11 -7 28% 75.72 0.0
07 13:15 W 11 16.09 Partly Cloudy SCT065 11 -7 28% 75.72 0.0
07 12:55 W 17 16.09 Partly Cloudy SCT065 10 -7 30% 8 75.74 0.0
07 12:35 W 15 G 35 16.09 Partly Cloudy SCT065 9 -7 32% 7 75.77 0.0
07 12:15 W 17 G 26 16.09 Partly Cloudy SCT065 10 -7 30% 8 75.77 0.0
07 11:55 W 13 16.09 Partly Cloudy SCT065 10 -7 30% 8 75.79 0.0
07 11:35 SW 15 16.09 Fair CLR 10 -6 32% 8 75.79 0.0
07 11:16 W 13 16.09 Partly Cloudy SCT065 9 -6 34% 7 75.82 0.0
07 10:55 W 13 G 26 16.09 Fair CLR 9 -7 32% 7 75.84 0.0
07 10:35 SW 11 16.09 Partly Cloudy SCT065 SCT090 9 -7 32% 8 75.84 0.0
07 10:15 SW 15 16.09 Partly Cloudy SCT070 SCT090 8 -6 37% 6 75.84 0.0
07 09:55 W 11 16.09 Partly Cloudy SCT070 8 -6 37% 6 75.84 0.0
07 09:35 SW 15 16.09 Fair CLR 7 -6 39% 5 75.87 0.0
07 09:15 SW 15 16.09 Partly Cloudy SCT080 7 -6 39% 5 75.87 0.0
07 08:56 SW 13 16.09 Partly Cloudy SCT080 SCT085 6 -4 49% 4 75.9 0.0
07 08:35 W 9 16.09 Mostly Cloudy BKN080 4 -4 56% 2 75.92 0.0
07 08:15 SW 11 16.09 Fair CLR 4 -4 56% 2 75.9 0.0
07 07:55 W 13 16.09 Partly Cloudy SCT070 4 -3 61% 1 75.9 0.0
07 07:35 SW 7 16.09 Partly Cloudy SCT070 SCT085 3 -3 65% 1 75.9 0.0
07 07:15 SW 7 16.09 Mostly Cloudy BKN085 1 -3 75% -1 75.9 0.0
07 06:55 SW 7 16.09 Overcast OVC085 1 -3 75% -1 75.9 0.0
07 06:36 SW 7 16.09 Overcast OVC085 0 -3 80% -2 75.9 0.0
07 06:15 SW 6 16.09 Mostly Cloudy BKN085 -3 -3 100% 75.9 0.0
07 05:55 Calm 16.09 Partly Cloudy SCT085 -4 -4 100% 75.9 0.0
07 05:35 Calm 16.09 Fair CLR -4 -4 100% 75.9 0.0
07 05:15 Calm 16.09 Fair CLR -4 -4 100% 75.92 0.0
07 04:55 Calm 16.09 Fair CLR -4 -4 100% 75.92 0.0
07 04:35 Calm 16.09 Fair CLR -3 -4 93% 75.92 0.0
07 04:16 Calm 16.09 Fair CLR -2 -4 86% 75.92 0.0
07 03:55 SW 6 16.09 Fair CLR -2 -3 93% 75.92 0.0
07 03:35 Calm 16.09 Fair CLR -2 -4 86% 75.92 0.0
07 03:15 Calm 16.09 Fair CLR -3 -4 93% 75.92 0.0
07 02:55 Calm 16.09 Fair CLR -2 -4 86% 75.9 0.0
07 02:35 Calm 16.09 Fair CLR -1 -4 80% 75.92 0.0
07 02:15 Calm 16.09 Fair CLR 1 -4 70% 75.92 0.0
07 01:56 SW 6 16.09 Fair CLR 2 -4 65% 75.95 0.0
07 01:35 Calm 16.09 Partly Cloudy SCT075 2 -4 65% 75.95 0.0
07 01:15 SW 6 16.09 Overcast SCT060 OVC075 3 -4 60% 75.97 0.0
07 00:55 SW 6 16.09 Overcast SCT060 OVC075 3 -4 60% 75.97 0.0
07 00:35 Calm 16.09 Overcast OVC075 3 -4 60% 76 0.0
07 00:15 W 6 16.09 Overcast OVC070 3 -4 60% 76 0.0
06 23:55 W 6 16.09 Overcast OVC070 3 -4 60% 76 0.0
06 23:36 W 6 16.09 Overcast OVC070 3 -4 60% 76.02 0.0
06 23:15 W 7 16.09 Overcast OVC070 4 -4 56% 2 76.02 0.0
06 22:55 W 6 16.09 Overcast OVC070 4 -4 56% 76.02 0.0
06 22:35 SW 6 16.09 Overcast OVC070 3 -4 60% 76.05 0.0
06 22:15 Calm 16.09 Overcast OVC070 3 -4 60% 76.05 0.0
06 21:55 W 6 16.09 Overcast OVC060 4 -4 56% 76.05 0.0
06 21:35 W 6 16.09 Overcast OVC060 4 -4 56% 76.05 0.0
06 21:16 Calm 16.09 Overcast OVC060 4 -4 56% 76.05 0.0
06 20:55 Calm 16.09 Overcast OVC060 4 -5 52% 76.05 0.0
06 20:35 Calm 16.09 Overcast OVC060 4 -5 52% 76.05 0.0
06 20:15 W 6 16.09 Overcast OVC060 4 -5 52% 76.05 0.0
06 19:55 NW 6 16.09 Overcast OVC060 4 -5 52% 76.05 0.0
06 19:35 NW 7 16.09 Overcast OVC060 4 -5 52% 2 76.05 0.0
06 19:15 NW 7 16.09 Overcast OVC060 5 -5 49% 4 76.05 0.0
06 18:56 NW 9 16.09 Overcast SCT048 OVC050 5 -4 53% 3 76.05 0.0
06 18:35 W 7 16.09 Overcast OVC050 5 -4 53% 4 76.07 0.0
06 18:15 NW 11 16.09 Overcast OVC050 5 -5 49% 3 76.07 0.0
06 17:55 W 7 16.09 Overcast BKN050 OVC060 6 -5 46% 5 76.07 0.0
06 17:35 W 11 16.09 Overcast OVC060 6 -5 46% 4 76.07 0.0
06 17:15 NW 13 16.09 Overcast SCT050 OVC060 6 -6 42% 4 76.07 0.0
06 16:55 NW 9 16.09 Overcast OVC055 6 -5 46% 4 76.07 0.0
06 16:36 NW 11 16.09 Overcast OVC049 6 -6 42% 4 76.07 0.0
06 16:15 NW 9 16.09 Overcast OVC049 6 -6 42% 4 76.07 0.0
06 15:55 W 7 16.09 Overcast BKN049 OVC055 6 -6 42% 5 76.07 0.0
06 15:35 W 9 G 15 16.09 Overcast OVC049 6 -6 42% 4 76.1 0.0
06 15:15 NW 11 16.09 Overcast OVC049 6 -6 42% 4 76.1 0.0
06 14:55 W 9 16.09 Overcast OVC049 6 -6 42% 4 76.1 0.0
06 14:35 W 15 16.09 Overcast OVC049 6 -6 42% 3 76.1 0.0
06 14:16 NW 13 16.09 Overcast OVC047 6 -6 42% 4 76.1 0.0
06 13:55 NW 11 16.09 Overcast OVC047 5 -6 45% 3 76.12 0.0
06 13:35 W 13 16.09 Overcast OVC049 5 -6 45% 2 76.12 0.0
06 13:15 NW 9 16.09 Overcast OVC047 5 -7 42% 3 76.12 0.0
06 12:55 NW 17 G 26 16.09 Overcast OVC045 5 -7 42% 2 76.12 0.0
06 12:35 W 13 G 26 16.09 Overcast OVC045 5 -6 45% 2 76.12 0.0
06 12:15 W 9 16.09 Overcast OVC045 4 -6 48% 2 76.15 0.0
06 11:55 NW 11 G 26 16.09 Overcast OVC045 4 -7 45% 2 76.15 0.0
06 11:36 NW 17 16.09 Overcast OVC043 4 -6 48% 1 76.17 0.0
06 11:15 NW 13 16.09 Overcast OVC041 4 -6 48% 1 76.17 0.0
06 10:55 W 15 16.09 Overcast OVC041 3 -6 52% -0 76.17 0.0
06 10:35 NW 9 16.09 Overcast OVC039 3 -6 52% 1 76.17 0.0
06 10:15 W 6 16.09 Overcast OVC039 3 -6 52% 76.17 0.0
06 09:55 NW 9 16.09 Overcast OVC039 3 -6 52% 1 76.17 0.0
06 09:35 W 7 16.09 Overcast OVC036 2 -6 56% 0 76.17 0.0
06 09:16 NW 6 16.09 Overcast OVC036 2 -6 56% 76.17 0.0
06 08:55 NW 9 16.09 Overcast OVC036 2 -6 56% -0 76.17 0.0
06 08:35 NW 9 16.09 Overcast OVC036 2 -6 56% -0 76.15 0.0
06 08:15 NW 7 16.09 Overcast OVC038 2 -6 56% 0 76.15 0.0
06 07:55 W 9 16.09 Overcast OVC038 2 -6 56% -0 76.12 0.0
06 07:35 W 7 16.09 Overcast OVC040 2 -6 56% 0 76.12 0.0
06 07:15 W 6 16.09 Overcast OVC040 1 -6 60% 76.1 0.0
06 06:56 W 6 16.09 Overcast OVC040 1 -6 60% 76.1 0.0
06 06:35 W 6 16.09 Overcast OVC040 1 -6 60% 76.07 0.0
06 06:15 Calm 16.09 Overcast OVC040 1 -6 60% 76.07 0.0
06 05:55 Calm 16.09 Overcast OVC040 1 -6 60% 76.05 0.0
06 05:35 Calm 16.09 Overcast OVC040 1 -6 60% 76.05 0.0
06 05:15 Calm 16.09 Overcast OVC040 1 -6 60% 76.05 0.0
06 04:55 Calm 16.09 Overcast OVC040 1 -6 60% 76.05 0.0
06 04:36 Calm 16.09 Overcast OVC040 1 -6 60% 76.05 0.0
06 04:15 NW 6 16.09 Overcast OVC040 1 -6 60% 76.05 0.0
06 03:55 N 9 16.09 Overcast OVC040 1 -6 60% -2 76.05 0.0
06 03:35 N 7 16.09 Overcast OVC038 1 -6 60% -1 76.02 0.0
06 03:15 N 9 16.09 Overcast OVC038 1 -5 65% -2 76.02 0.0
06 02:55 N 7 16.09 Overcast OVC040 1 -5 65% -1 76.02 0.0
06 02:35 N 7 16.09 Overcast OVC040 2 -5 60% 0 76.02 0.0
06 02:16 N 7 16.09 Overcast OVC040 2 -5 60% 0 76.02 0.0
06 01:55 N 7 16.09 Overcast OVC040 2 -5 60% 0 76.02 0.0
06 01:35 N 6 16.09 Overcast OVC042 2 -5 60% 76.05 0.0
06 01:15 N 7 16.09 Overcast OVC040 2 -5 60% 0 76.02 0.0
06 00:55 N 11 16.09 Overcast OVC040 2 -4 65% -1 76.02 0.0
06 00:35 N 9 16.09 Overcast OVC040 2 -4 65% -0 76.02 0.0
06 00:15 NW 11 16.09 Overcast OVC040 2 -5 60% -1 76 0.0
05 23:56 NW 9 16.09 Overcast OVC040 2 -5 60% -0 76 0.0
05 23:35 NW 11 16.09 Overcast OVC042 3 -5 56% 0 76 0.0
05 23:15 NW 11 16.09 Overcast OVC042 3 -6 52% 0 75.97 0.0
05 22:55 NW 11 16.09 Overcast OVC044 3 -5 56% 0 76 0.0
05 22:35 Calm 16.09 Overcast OVC046 2 -6 56% 75.97 0.0
05 22:15 Calm 16.09 Overcast OVC044 2 -6 56% 75.97 0.0
05 21:55 Calm 16.09 Overcast OVC044 2 -6 56% 75.97 0.0
05 21:36 Calm 16.09 Overcast OVC044 2 -6 56% 75.97 0.0
05 21:15 Calm 16.09 Overcast OVC044 2 -6 56% 75.95 0.0
05 20:55 NW 6 16.09 Overcast OVC044 2 -6 56% 75.95 0.0
05 20:35 NW 7 16.09 Overcast OVC046 2 -6 56% 0 75.92 0.0
05 20:15 NW 9 16.09 Overcast OVC048 3 -6 52% 1 75.92 0.0
05 19:55 NW 13 16.09 Overcast OVC050 3 -6 52% 0 75.92 0.0
05 19:35 NW 13 16.09 Overcast OVC048 3 -6 52% 0 75.9 0.0
05 19:16 NW 15 16.09 Overcast OVC050 3 -6 52% -0 75.9 0.0
05 18:55 NW 15 16.09 Overcast OVC050 3 -6 52% -0 75.87 0.0
05 18:35 NW 17 16.09 Overcast OVC050 4 -7 45% 1 75.87 0.0
05 18:15 NW 17 16.09 Overcast SCT044 OVC050 4 -6 48% 1 75.84 0.0
05 17:55 N 11 16.09 Overcast SCT044 OVC050 4 -6 48% 2 75.84 0.0
05 17:35 NW 15 16.09 Overcast SCT041 OVC050 4 -5 52% 1 75.84 0.0
05 17:15 NW 17 G 31 16.09 Overcast BKN046 OVC050 4 -5 52% 1 75.84 0.0
05 16:56 NW 13 16.09 Overcast OVC048 4 -6 48% 1 75.82 0.0
05 16:35 NW 17 16.09 Overcast OVC048 5 -6 45% 2 75.82 0.0
05 16:15 NW 15 16.09 Overcast OVC050 5 -6 45% 2 75.79 0.0
05 15:55 NW 11 16.09 Overcast OVC050 6 -6 42% 4 75.79 0.0
05 15:35 NW 13 G 26 16.09 Mostly Cloudy BKN048 6 -6 42% 4 75.79 0.0
05 15:15 W 13 G 31 16.09 Partly Cloudy SCT048 6 -6 42% 4 75.79 0.0
05 14:55 NW 9 16.09 Mostly Cloudy BKN050 6 -6 42% 4 75.79 0.0
05 14:36 NW 17 G 28 16.09 Mostly Cloudy BKN048 5 -6 45% 2 75.79 0.0
05 14:15 W 15 G 26 16.09 Mostly Cloudy BKN048 5 -6 45% 2 75.79 0.0
05 13:55 W 15 G 30 16.09 Overcast OVC048 5 -6 45% 2 75.77 0.0
05 13:35 W 11 G 28 16.09 Mostly Cloudy BKN048 5 -6 45% 3 75.77 0.0
05 13:15 W 17 G 30 16.09 Overcast OVC046 5 -6 45% 2 75.77 0.0
05 12:55 NW 17 G 30 16.09 Overcast OVC042 4 -6 48% 1 75.77 0.0
05 12:35 NW 17 G 26 16.09 Overcast OVC042 4 -6 48% 1 75.77 0.0
05 12:16 W 15 G 28 16.09 Overcast OVC044 4 -6 48% 1 75.77 0.0
05 11:55 NW 17 16.09 Overcast OVC043 4 -6 48% 1 75.74 0.0
05 11:35 NW 13 16.09 Overcast OVC045 4 -6 48% 1 75.74 0.0
05 11:15 NW 15 G 30 16.09 Overcast OVC044 4 -6 48% 1 75.74 0.0
05 10:55 W 20 G 28 16.09 Mostly Cloudy BKN042 BKN055 5 -6 45% 1 75.72 0.0
05 10:35 W 13 G 31 16.09 Overcast BKN042 OVC055 3 -6 52% 0 75.72 0.0
05 10:15 W 13 G 31 16.09 Overcast BKN042 OVC055 3 -6 52% 0 75.72 0.0
05 09:56 NW 15 G 28 16.09 Mostly Cloudy BKN042 BKN055 2 -6 56% -2 75.72 0.0
05 09:35 W 19 G 31 16.09 Mostly Cloudy BKN044 3 -6 52% -1 75.69 0.0
05 09:15 NW 17 G 26 16.09 Mostly Cloudy BKN042 2 -6 56% -2 75.69 0.0
05 08:55 NW 11 16.09 Mostly Cloudy SCT038 BKN047 2 -6 56% -1 75.67 0.0
05 08:35 W 9 16.09 Mostly Cloudy BKN049 BKN075 2 -6 56% -0 75.67 0.0
05 08:15 W 11 16.09 Mostly Cloudy SCT049 BKN075 2 -6 56% -1 75.64 0.0
05 07:55 W 11 16.09 Partly Cloudy SCT047 SCT075 1 -6 60% -2 75.64 0.0
05 07:36 NW 13 16.09 Mostly Cloudy SCT047 BKN075 1 -6 60% -2 75.62 0.0
05 07:15 NW 9 16.09 Mostly Cloudy SCT047 SCT055 BKN075 1 -6 60% -2 75.59 0.0
05 06:55 NW 9 16.09 Overcast SCT047 OVC075 0 -6 64% -3 75.59 0.0
05 06:35 W 7 16.09 Overcast OVC075 0 -6 64% -2 75.57 0.0
05 06:15 NW 9 16.09 Overcast OVC075 -1 -6 69% -4 75.57 0.0
05 05:55 NW 7 16.09 Overcast OVC075 -1 -6 69% -3 75.54 0.0
05 05:35 NW 9 16.09 Overcast OVC075 -1 -6 69% -4 75.54 0.0
05 05:15 W 13 16.09 Mostly Cloudy BKN075 -1 -6 69% -5 75.54 0.0
05 04:56 W 9 16.09 Fair CLR -1 -6 69% -4 75.54 0.0
05 04:35 NW 7 16.09 Fair CLR -1 -6 69% -3 75.51 0.0
05 04:15 W 11 16.09 Fair CLR 0 -6 64% -3 75.51 0.0
05 03:55 NW 13 16.09 Fair CLR 0 -6 64% -4 75.49 0.0
05 03:35 W 13 16.09 Fair CLR 1 -6 60% -2 75.49 0.0
05 03:15 W 11 16.09 Fair CLR 1 -6 60% -2 75.46 0.0
05 02:55 NW 11 16.09 Fair CLR 1 -6 60% -2 75.46 0.0
05 02:36 NW 17 G 35 16.09 Fair CLR 2 -6 56% -2 75.46 0.0
05 02:15 NW 11 16.09 Fair CLR 2 -5 60% -1 75.46 0.0
05 01:55 NW 13 16.09 Fair CLR 2 -5 60% -1 75.44 0.0
05 01:35 NW 11 16.09 Fair CLR 2 -4 65% -1 75.44 0.0
05 01:15 NW 13 16.09 Partly Cloudy SCT090 3 -5 56% 0 75.44 0.0
05 00:55 NW 17 G 30 16.09 Fair CLR 3 -5 56% -1 75.41 0.0
05 00:36 NW 7 16.09 Partly Cloudy SCT090 3 -6 52% 1 75.41 0.0
05 00:15 NW 9 16.09 Mostly Cloudy BKN090 3 -5 56% 1 75.41 0.0
04 23:55 NW 7 16.09 Partly Cloudy SCT090 3 -4 60% 1 75.39 0.0
04 23:35 NW 11 16.09 Partly Cloudy SCT090 4 -4 56% 2 75.39 0.0
04 23:15 NW 9 16.09 Mostly Cloudy BKN090 4 -4 56% 2 75.39 0.0
04 22:55 NW 7 16.09 Mostly Cloudy BKN090 5 -4 53% 4 75.39 0.0
04 22:35 W 9 16.09 Mostly Cloudy BKN090 6 -4 49% 4 75.36 0.0
04 22:16 W 13 16.09 Overcast SCT070 OVC090 6 -4 49% 4 75.36 0.0
04 21:55 W 6 16.09 Overcast SCT055 SCT070 OVC080 6 -4 49% 75.36 0.0
04 21:35 W 11 G 26 16.09 Overcast OVC080 6 -4 49% 4 75.34 0.0
04 21:15 W 11 16.09 Overcast OVC080 6 -4 49% 4 75.31 0.0
04 20:55 NW 7 16.09 Overcast OVC080 6 -4 49% 5 75.31 0.0
04 20:35 NW 11 16.09 Overcast SCT065 OVC080 6 -5 46% 4 75.29 0.0
04 20:15 NW 15 16.09 Mostly Cloudy SCT049 BKN065 BKN080 7 -5 43% 5 75.29 0.0
04 19:56 W 6 16.09 Mostly Cloudy BKN080 7 -6 39% 75.26 0.0
04 19:35 W 17 G 26 16.09 Overcast OVC080 7 -6 39% 4 75.26 0.0
04 19:15 NW 13 16.09 Mostly Cloudy BKN080 7 -6 39% 5 75.23 0.0
04 18:55 W 13 G 26 16.09 Partly Cloudy SCT070 SCT080 7 -7 37% 5 75.23 0.0
04 18:35 W 20 G 35 16.09 Mostly Cloudy BKN070 7 -7 37% 4 75.23 0.0
04 18:15 NW 19 G 30 16.09 Partly Cloudy SCT070 8 -7 34% 5 75.23 0.0
04 17:55 W 20 G 31 16.09 Partly Cloudy SCT070 8 -7 34% 5 75.21 0.0
04 17:36 NW 24 G 35 16.09 Mostly Cloudy BKN060 9 -7 32% 6 75.18 0.0
04 17:15 W 19 G 39 16.09 Mostly Cloudy BKN060 8 -6 37% 5 75.21 0.0
04 16:55 NW 30 G 43 16.09 Overcast OVC060 7 -5 43% 3 75.18 0.0
04 16:35 NW 19 G 31 16.09 Overcast OVC060 8 -5 40% 5 75.16 0.0
04 16:15 NW 20 G 28 16.09 Overcast OVC050 8 -4 43% 5 75.16 0.0
04 15:55 NW 20 G 39 16.09 Overcast OVC050 8 -4 43% 5 75.13 0.0
04 15:35 NW 15 G 33 16.09 Overcast BKN050 OVC055 8 -4 43% 6 75.13 0.0
04 15:16 W 28 G 37 16.09 Overcast OVC050 8 -4 43% 4 75.11 0.0
04 14:55 NW 22 G 35 16.09 Overcast BKN048 OVC050 8 -3 46% 5 75.11 0.0
Date Time (cdt) Wind (kph) Vis. (km) Weather Sky Cond. Air Dwpt Max. Min. Relative Humidity Wind Chill (°C) Heat Index (°C) altimeter (cm) sea level (mb) 1 hr 3 hr 6 hr
6 hour
Temperature (ºC) Pressure Precipitation (cm)